Time;durP1;ratioP1;P1;durP2;ratioP2;P2;SDS_P1;SDS_P2;PMS_P1;PMS_P2;Temp;Humidity;BMP_temperature;BMP_pressure;BME280_temperature;BME280_humidity;BME280_pressure;Samples;Min_cycle;Max_cycle;Signal;HPM_P1;HPM_P2
2021/06/10 00:01:29;;;;;;;8.03;5.60;;;16.50;99.90;;;;;;5080192;28;20301;-66
2021/06/10 00:03:57;;;;;;;6.47;5.97;;;16.40;99.90;;;;;;5060869;28;20176;-66
2021/06/10 00:06:24;;;;;;;6.77;6.20;;;16.40;99.90;;;;;;5077008;28;20208;-66
2021/06/10 00:08:52;;;;;;;7.73;5.97;;;16.40;99.90;;;;;;5081059;28;20448;-66
2021/06/10 00:11:22;;;;;;;6.83;6.10;;;16.40;99.90;;;;;;5075539;28;20317;-66
2021/06/10 00:13:50;;;;;;;6.50;6.00;;;16.30;99.90;;;;;;5080819;28;20225;-66
2021/06/10 00:16:18;;;;;;;7.47;6.30;;;16.30;99.90;;;;;;5079409;28;20233;-66
2021/06/10 00:18:49;;;;;;;7.00;6.30;;;16.20;99.90;;;;;;5063816;28;20366;-66
2021/06/10 00:21:17;;;;;;;8.87;6.47;;;16.20;99.90;;;;;;5074903;28;20195;-66
2021/06/10 00:23:45;;;;;;;8.53;7.10;;;16.20;99.90;;;;;;5077599;28;20253;-66
2021/06/10 00:26:13;;;;;;;9.00;8.10;;;16.20;99.90;;;;;;5079214;28;20196;-66
2021/06/10 00:28:42;;;;;;;9.57;7.63;;;16.10;99.90;;;;;;5052032;28;20218;-66
2021/06/10 00:31:10;;;;;;;13.70;8.50;;;16.10;99.90;;;;;;5078210;28;20184;-66
2021/06/10 00:33:38;;;;;;;9.87;8.13;;;16.10;99.90;;;;;;5077482;28;20398;-66
2021/06/10 00:36:07;;;;;;;9.13;8.20;;;16.10;99.90;;;;;;5076855;28;20401;-65
2021/06/10 00:38:35;;;;;;;10.43;8.23;;;16.10;99.90;;;;;;5081279;28;20201;-66
2021/06/10 00:41:03;;;;;;;9.50;8.43;;;16.10;99.90;;;;;;5080647;28;20253;-65
2021/06/10 00:43:31;;;;;;;10.17;8.80;;;16.10;99.90;;;;;;5080959;28;20188;-66
2021/06/10 00:46:00;;;;;;;13.90;9.27;;;16.20;99.90;;;;;;5076892;28;20216;-66
2021/06/10 00:48:29;;;;;;;11.37;9.57;;;16.10;99.90;;;;;;5083484;28;20206;-67
2021/06/10 00:50:57;;;;;;;13.27;10.40;;;16.10;99.90;;;;;;5076923;28;20196;-66
2021/06/10 00:53:25;;;;;;;10.93;9.93;;;16.10;99.90;;;;;;5063414;28;20374;-66
2021/06/10 00:55:55;;;;;;;10.60;9.50;;;16.10;99.90;;;;;;5079422;28;20250;-66
2021/06/10 00:58:23;;;;;;;11.40;9.77;;;16.10;99.90;;;;;;5082889;28;20237;-66
2021/06/10 01:01:18;;;;;;;10.17;9.20;;;16.00;99.90;;;;;;5076817;28;20320;-66
2021/06/10 01:03:46;;;;;;;11.57;8.87;;;16.00;99.90;;;;;;5080724;28;20254;-66
2021/06/10 01:06:25;;;;;;;12.17;10.73;;;15.90;99.90;;;;;;5074295;28;20257;-66
2021/06/10 01:09:04;;;;;;;12.70;10.87;;;15.90;99.90;;;;;;5079570;28;20187;-66
2021/06/10 01:11:40;;;;;;;12.70;11.10;;;15.90;99.90;;;;;;5079580;28;20222;-66
2021/06/10 01:14:16;;;;;;;12.27;10.97;;;15.80;99.90;;;;;;5077234;28;20187;-66
2021/06/10 01:16:47;;;;;;;13.57;11.70;;;15.80;99.90;;;;;;5078080;28;20196;-65
2021/06/10 01:19:18;;;;;;;13.93;12.00;;;15.80;99.90;;;;;;5080372;28;20358;-66
2021/06/10 01:21:48;;;;;;;14.70;11.90;;;15.80;99.90;;;;;;5060675;28;20278;-65
2021/06/10 01:24:35;;;;;;;13.13;11.80;;;15.80;99.90;;;;;;5078659;28;20382;-66
2021/06/10 01:27:19;;;;;;;13.73;12.20;;;15.70;99.90;;;;;;5080426;28;20200;-66
2021/06/10 01:29:50;;;;;;;13.87;11.70;;;15.70;99.90;;;;;;5078333;28;20184;-66
2021/06/10 01:32:19;;;;;;;13.60;11.77;;;15.70;99.90;;;;;;5060809;28;20185;-66
2021/06/10 01:34:48;;;;;;;13.40;12.03;;;15.70;99.90;;;;;;5083003;28;20199;-65
2021/06/10 01:37:17;;;;;;;14.63;12.77;;;15.70;99.90;;;;;;5084042;28;20176;-66
2021/06/10 01:39:49;;;;;;;16.87;13.00;;;15.70;99.90;;;;;;5079688;28;20204;-66
2021/06/10 01:42:19;;;;;;;21.17;12.83;;;15.70;99.90;;;;;;5083300;28;20180;-66
2021/06/10 01:44:48;;;;;;;17.63;13.33;;;15.60;99.90;;;;;;5085571;28;20249;-66
2021/06/10 01:47:17;;;;;;;19.17;13.40;;;15.60;99.90;;;;;;5079982;28;20220;-66
2021/06/10 01:49:45;;;;;;;18.17;13.03;;;15.50;99.90;;;;;;5084655;28;20241;-65
2021/06/10 01:52:14;;;;;;;14.37;12.73;;;15.50;99.90;;;;;;5084955;28;20192;-66
2021/06/10 01:54:42;;;;;;;14.50;13.00;;;15.50;99.90;;;;;;5050688;28;20220;-65
2021/06/10 01:57:11;;;;;;;15.03;12.67;;;15.50;99.90;;;;;;5086104;28;20180;-66
2021/06/10 01:59:42;;;;;;;18.03;13.10;;;15.50;99.90;;;;;;5076644;28;20268;-66
2021/06/10 02:02:10;;;;;;;13.23;11.80;;;15.40;99.90;;;;;;5081140;28;20185;-66
2021/06/10 02:04:39;;;;;;;14.77;12.33;;;15.40;99.90;;;;;;5083539;28;20195;-66
2021/06/10 02:07:09;;;;;;;18.30;13.40;;;15.40;99.90;;;;;;5084973;28;20243;-66
2021/06/10 02:09:37;;;;;;;14.83;13.23;;;15.40;99.90;;;;;;5083148;28;20222;-66
2021/06/10 02:12:07;;;;;;;17.83;14.37;;;15.30;99.90;;;;;;5079849;28;20192;-65
2021/06/10 02:14:35;;;;;;;16.33;13.53;;;15.30;99.90;;;;;;5082330;28;20211;-65
2021/06/10 02:17:06;;;;;;;15.70;13.83;;;15.20;99.90;;;;;;5078180;28;20239;-65
2021/06/10 02:19:36;;;;;;;17.83;14.17;;;15.20;99.90;;;;;;5082710;28;20249;-66
2021/06/10 02:22:04;;;;;;;14.80;13.30;;;15.20;99.90;;;;;;5082672;28;20227;-66
2021/06/10 02:24:32;;;;;;;16.53;13.60;;;15.10;99.90;;;;;;5084064;28;20172;-66
2021/06/10 02:27:00;;;;;;;17.20;15.03;;;15.00;99.90;;;;;;5079066;28;20232;-66
2021/06/10 02:29:28;;;;;;;16.20;14.03;;;15.00;99.90;;;;;;5083794;28;20258;-66
2021/06/10 02:31:56;;;;;;;18.30;13.97;;;15.00;99.90;;;;;;5063784;28;20340;-66
2021/06/10 02:34:25;;;;;;;17.87;14.60;;;14.90;99.90;;;;;;5082430;28;20188;-66
2021/06/10 02:36:54;;;;;;;18.33;13.20;;;14.90;99.90;;;;;;5064634;28;20185;-65
2021/06/10 02:39:22;;;;;;;18.73;13.57;;;14.90;99.90;;;;;;5074874;28;20189;-66
2021/06/10 02:41:52;;;;;;;15.43;13.83;;;14.90;99.90;;;;;;5079697;28;20188;-65
2021/06/10 02:44:21;;;;;;;19.83;13.73;;;14.90;99.90;;;;;;5078737;28;20301;-66
2021/06/10 02:46:49;;;;;;;20.13;14.43;;;14.80;99.90;;;;;;5079088;28;20427;-66
2021/06/10 02:49:19;;;;;;;18.27;14.33;;;14.80;99.90;;;;;;5084755;28;20176;-66
2021/06/10 02:51:49;;;;;;;19.83;14.07;;;14.70;99.90;;;;;;5078024;28;20422;-66
2021/06/10 02:54:19;;;;;;;17.07;13.43;;;14.70;99.90;;;;;;5076207;28;20183;-66
2021/06/10 02:56:48;;;;;;;19.93;14.80;;;14.70;99.90;;;;;;5080719;28;20191;-65
2021/06/10 02:59:18;;;;;;;19.20;13.97;;;14.70;99.90;;;;;;5083695;28;20196;-66
2021/06/10 03:01:47;;;;;;;17.60;13.13;;;14.70;99.90;;;;;;5081722;28;20317;-65
2021/06/10 03:04:16;;;;;;;16.20;14.50;;;14.60;99.90;;;;;;5064130;28;20210;-66
2021/06/10 03:06:45;;;;;;;20.53;14.57;;;14.60;99.90;;;;;;5085810;28;20226;-65
2021/06/10 03:09:18;;;;;;;14.27;12.57;;;14.50;99.90;;;;;;5064632;28;20196;-66
2021/06/10 03:11:47;;;;;;;17.17;13.97;;;14.50;99.90;;;;;;5079771;28;20245;-66
2021/06/10 03:14:17;;;;;;;18.17;14.63;;;14.40;99.90;;;;;;5082947;28;20214;-65
2021/06/10 03:16:47;;;;;;;18.80;14.17;;;14.50;99.90;;;;;;5080382;28;20274;-65
2021/06/10 03:19:15;;;;;;;17.80;13.87;;;14.40;99.90;;;;;;5086152;28;20306;-65
2021/06/10 03:21:45;;;;;;;14.90;13.40;;;14.40;99.90;;;;;;5079056;28;20184;-66
2021/06/10 03:24:16;;;;;;;17.80;13.73;;;14.40;99.90;;;;;;5061637;28;20332;-66
2021/06/10 03:26:46;;;;;;;21.30;13.43;;;14.30;99.90;;;;;;5072583;28;20337;-65
2021/06/10 03:29:14;;;;;;;15.87;13.57;;;14.30;99.90;;;;;;5080538;28;20265;-65
2021/06/10 03:31:43;;;;;;;17.20;13.50;;;14.30;99.90;;;;;;5080608;28;20184;-65
2021/06/10 03:34:12;;;;;;;19.83;13.27;;;14.20;99.90;;;;;;5072132;28;20545;-65
2021/06/10 03:36:40;;;;;;;14.50;12.90;;;14.20;99.90;;;;;;5077983;28;20402;-65
2021/06/10 03:39:09;;;;;;;14.73;12.97;;;14.20;99.90;;;;;;5079255;28;20354;-65
2021/06/10 03:41:39;;;;;;;14.73;12.93;;;14.10;99.90;;;;;;5075612;28;20365;-65
2021/06/10 03:44:08;;;;;;;22.50;13.93;;;14.10;99.90;;;;;;5080807;28;20233;-65
2021/06/10 03:46:36;;;;;;;17.70;12.23;;;14.10;99.90;;;;;;5077412;28;20258;-66
2021/06/10 03:49:04;;;;;;;13.33;11.67;;;14.10;99.90;;;;;;5078940;28;20179;-65
2021/06/10 03:51:32;;;;;;;13.37;11.33;;;14.10;99.90;;;;;;5083141;28;20180;-65
2021/06/10 03:54:01;;;;;;;18.10;11.63;;;14.10;99.90;;;;;;5079057;28;20403;-66
2021/06/10 03:56:29;;;;;;;14.30;11.50;;;14.10;99.90;;;;;;5078048;28;20265;-66
2021/06/10 03:58:58;;;;;;;12.70;11.40;;;14.10;99.90;;;;;;5077819;28;20210;-65
2021/06/10 04:01:32;;;;;;;13.40;11.83;;;14.10;99.90;;;;;;5080520;28;20182;-65
2021/06/10 04:04:00;;;;;;;16.57;11.70;;;14.00;99.90;;;;;;5082288;28;20184;-66
2021/06/10 04:06:31;;;;;;;12.90;11.60;;;14.00;99.90;;;;;;5080787;28;20188;-66
2021/06/10 04:08:59;;;;;;;13.57;11.03;;;14.00;99.90;;;;;;5078178;28;20192;-65
2021/06/10 04:11:27;;;;;;;14.57;11.70;;;14.10;99.90;;;;;;5078043;28;20188;-65
2021/06/10 04:14:27;;;;;;;12.70;11.40;;;14.00;99.90;;;;;;5059664;28;20571;-65
2021/06/10 04:16:55;;;;;;;11.83;10.63;;;14.10;99.90;;;;;;5082503;28;20275;-65
2021/06/10 04:19:23;;;;;;;13.83;11.17;;;14.10;99.90;;;;;;5078181;28;20190;-65
2021/06/10 04:21:51;;;;;;;11.17;10.07;;;14.10;99.90;;;;;;5081693;28;20387;-65
2021/06/10 04:24:19;;;;;;;12.17;10.13;;;14.10;99.90;;;;;;5077880;28;20429;-66
2021/06/10 04:26:47;;;;;;;11.67;10.47;;;14.10;99.90;;;;;;5081218;28;20184;-65
2021/06/10 04:29:15;;;;;;;11.20;9.90;;;14.10;99.90;;;;;;5077526;28;20239;-65
2021/06/10 04:31:44;;;;;;;15.20;10.00;;;14.20;99.90;;;;;;5077162;28;20231;-65
2021/06/10 04:34:12;;;;;;;15.67;9.30;;;14.20;99.90;;;;;;5060756;28;20180;-65
2021/06/10 04:36:40;;;;;;;15.53;10.10;;;14.30;99.90;;;;;;5078940;28;20248;-65
2021/06/10 04:39:08;;;;;;;14.53;10.13;;;14.30;99.90;;;;;;5075850;28;20177;-65
2021/06/10 04:41:36;;;;;;;12.03;9.23;;;14.40;99.90;;;;;;5081731;28;20204;-65
2021/06/10 04:44:04;;;;;;;13.13;10.07;;;14.50;99.90;;;;;;5083945;28;20191;-65
2021/06/10 04:46:33;;;;;;;18.30;10.67;;;14.60;99.90;;;;;;5076316;28;20330;-65
2021/06/10 04:49:03;;;;;;;12.20;9.83;;;14.70;99.90;;;;;;5076523;28;20472;-65
2021/06/10 04:51:31;;;;;;;13.07;9.37;;;14.70;99.90;;;;;;5074178;28;20291;-65
2021/06/10 04:53:59;;;;;;;13.33;10.03;;;14.80;99.90;;;;;;5075072;28;20245;-66
2021/06/10 04:56:27;;;;;;;11.73;10.50;;;14.90;99.90;;;;;;5079905;28;20250;-65
2021/06/10 04:58:55;;;;;;;18.07;13.10;;;15.00;99.90;;;;;;5053564;28;20192;-65
2021/06/10 05:01:24;;;;;;;15.47;11.43;;;15.10;99.90;;;;;;5081545;28;20188;-65
2021/06/10 05:03:52;;;;;;;13.73;11.17;;;15.20;99.90;;;;;;5083597;28;20226;-65
2021/06/10 05:06:21;;;;;;;14.03;11.93;;;15.30;99.90;;;;;;5082859;28;20176;-65
2021/06/10 05:08:49;;;;;;;12.40;11.20;;;15.40;99.90;;;;;;5049199;28;20224;-66
2021/06/10 05:11:17;;;;;;;15.77;11.40;;;15.50;99.90;;;;;;5052128;28;20191;-65
2021/06/10 05:13:44;;;;;;;15.37;11.07;;;15.60;99.90;;;;;;5085184;28;20180;-66
2021/06/10 05:16:12;;;;;;;13.00;11.60;;;15.60;99.90;;;;;;5064255;28;20203;-65
2021/06/10 05:18:41;;;;;;;13.30;11.10;;;15.70;99.90;;;;;;5087166;28;20190;-65
2021/06/10 05:21:12;;;;;;;11.23;10.00;;;15.80;99.90;;;;;;5085534;28;20212;-66
2021/06/10 05:23:42;;;;;;;11.30;10.03;;;15.90;99.90;;;;;;5088004;28;20314;-65
2021/06/10 05:26:10;;;;;;;12.33;10.13;;;16.00;99.90;;;;;;5087045;28;20184;-65
2021/06/10 05:28:38;;;;;;;12.80;10.17;;;16.10;99.90;;;;;;5080107;28;20224;-65
2021/06/10 05:31:07;;;;;;;8.87;8.07;;;16.20;99.90;;;;;;5085116;28;20288;-66
2021/06/10 05:33:36;;;;;;;7.63;7.00;;;16.20;99.90;;;;;;5081167;28;20184;-65
2021/06/10 05:36:05;;;;;;;12.20;7.00;;;16.40;99.90;;;;;;5089517;28;20297;-65
2021/06/10 05:38:33;;;;;;;13.80;8.03;;;16.50;99.90;;;;;;5081132;28;20176;-66
2021/06/10 05:41:02;;;;;;;12.67;8.27;;;16.60;99.90;;;;;;5087634;28;20175;-65
2021/06/10 05:43:31;;;;;;;7.27;6.57;;;16.70;99.90;;;;;;5084595;28;20180;-65
2021/06/10 05:45:59;;;;;;;7.47;6.63;;;16.80;99.90;;;;;;5083256;28;20296;-65
2021/06/10 05:48:26;;;;;;;7.13;6.40;;;16.80;99.90;;;;;;5081498;28;20383;-65
2021/06/10 05:50:54;;;;;;;7.10;5.60;;;16.90;99.90;;;;;;5065721;28;20184;-65
2021/06/10 05:53:24;;;;;;;6.50;5.87;;;16.90;99.90;;;;;;5082652;28;20192;-65
2021/06/10 05:55:51;;;;;;;5.77;5.20;;;17.00;99.90;;;;;;5078108;28;20265;-65
2021/06/10 05:58:21;;;;;;;5.43;4.90;;;17.20;99.90;;;;;;5082428;28;20195;-65
2021/06/10 06:00:50;;;;;;;6.87;5.50;;;17.20;99.90;;;;;;5087542;28;20184;-65
2021/06/10 06:03:18;;;;;;;5.40;5.00;;;17.30;99.90;;;;;;5086229;28;20191;-65
2021/06/10 06:05:47;;;;;;;7.37;5.33;;;17.40;99.90;;;;;;5084507;28;20192;-65
2021/06/10 06:08:16;;;;;;;5.00;4.60;;;17.50;99.90;;;;;;5076729;28;20271;-65
2021/06/10 06:10:46;;;;;;;10.13;4.83;;;17.50;99.90;;;;;;5087037;28;20233;-65
2021/06/10 06:13:16;;;;;;;6.23;4.47;;;17.50;99.90;;;;;;5081914;28;20176;-65
2021/06/10 06:15:46;;;;;;;5.37;4.47;;;17.60;99.90;;;;;;5084786;28;20288;-65
2021/06/10 06:18:14;;;;;;;4.90;4.47;;;17.60;99.90;;;;;;5083570;28;20352;-65
2021/06/10 06:20:42;;;;;;;5.10;4.70;;;17.70;99.90;;;;;;5083704;28;20230;-65
2021/06/10 06:23:10;;;;;;;4.73;4.33;;;17.70;99.90;;;;;;5087788;28;20230;-65
2021/06/10 06:25:37;;;;;;;5.07;4.60;;;17.70;99.90;;;;;;5077701;28;20437;-65
2021/06/10 06:28:05;;;;;;;5.00;4.70;;;17.70;99.90;;;;;;5087662;28;20218;-66
2021/06/10 06:30:33;;;;;;;5.80;5.03;;;17.80;99.90;;;;;;5075719;28;20180;-65
2021/06/10 06:33:03;;;;;;;6.37;4.60;;;17.90;99.90;;;;;;5080990;28;20242;-65
2021/06/10 06:35:34;;;;;;;5.40;4.40;;;18.00;99.90;;;;;;5080681;28;20234;-65
2021/06/10 06:38:02;;;;;;;6.70;4.93;;;18.10;99.90;;;;;;5079453;28;20181;-65
2021/06/10 06:40:30;;;;;;;5.40;5.00;;;18.20;99.90;;;;;;5084885;28;20180;-65
2021/06/10 06:42:58;;;;;;;8.77;4.83;;;18.20;99.90;;;;;;5084314;28;20184;-65
2021/06/10 06:45:26;;;;;;;5.30;4.87;;;18.20;99.90;;;;;;5076470;28;20181;-65
2021/06/10 06:47:53;;;;;;;4.87;4.40;;;18.50;99.90;;;;;;5084778;28;20212;-66
2021/06/10 06:50:23;;;;;;;4.97;4.60;;;18.50;99.90;;;;;;5062501;28;20242;-65
2021/06/10 06:52:50;;;;;;;4.90;4.60;;;18.60;99.90;;;;;;5083577;28;20188;-65
2021/06/10 06:55:18;;;;;;;5.30;4.90;;;18.60;99.90;;;;;;5082309;28;20249;-66
2021/06/10 06:57:46;;;;;;;5.37;4.97;;;18.80;99.90;;;;;;5068287;28;20291;-65
2021/06/10 07:00:16;;;;;;;5.87;5.00;;;18.80;99.90;;;;;;5086290;28;20203;-65
2021/06/10 07:02:44;;;;;;;6.90;5.13;;;18.90;99.90;;;;;;5081054;28;20424;-65
2021/06/10 07:05:12;;;;;;;5.63;5.23;;;19.00;99.90;;;;;;5078542;28;20181;-66
2021/06/10 07:07:41;;;;;;;6.43;4.97;;;19.10;99.90;;;;;;5081084;28;20230;-65
2021/06/10 07:10:10;;;;;;;5.67;5.17;;;19.20;99.90;;;;;;5082691;28;20198;-66
2021/06/10 07:12:38;;;;;;;5.33;4.93;;;19.40;99.90;;;;;;5086061;28;20184;-65
2021/06/10 07:15:07;;;;;;;6.13;5.50;;;19.60;99.90;;;;;;5081226;28;20386;-65
2021/06/10 07:17:36;;;;;;;7.40;5.40;;;19.70;99.90;;;;;;5080703;28;20179;-66
2021/06/10 07:20:06;;;;;;;5.60;4.93;;;19.80;99.90;;;;;;5083746;28;20185;-66
2021/06/10 07:22:38;;;;;;;4.60;4.30;;;19.80;99.90;;;;;;5085733;28;20191;-66
2021/06/10 07:25:08;;;;;;;6.53;4.60;;;19.80;99.90;;;;;;5084305;28;20224;-66
2021/06/10 07:27:37;;;;;;;5.30;4.70;;;19.80;99.90;;;;;;5074988;28;20196;-66
2021/06/10 07:30:06;;;;;;;5.67;4.20;;;20.00;99.90;;;;;;5081813;28;20184;-66
2021/06/10 07:32:34;;;;;;;5.90;4.80;;;20.00;99.90;;;;;;5081731;28;20192;-66
2021/06/10 07:35:04;;;;;;;4.93;4.63;;;20.20;99.90;;;;;;5083100;28;20207;-66
2021/06/10 07:37:32;;;;;;;5.27;4.77;;;20.20;99.90;;;;;;5063937;28;20259;-66
2021/06/10 07:40:00;;;;;;;5.10;4.77;;;20.20;99.90;;;;;;5083239;28;20184;-67
2021/06/10 07:42:29;;;;;;;4.93;4.53;;;20.40;99.90;;;;;;5079649;28;20184;-67
2021/06/10 07:44:57;;;;;;;5.50;5.00;;;20.60;99.90;;;;;;5084933;28;20270;-66
2021/06/10 07:47:25;;;;;;;5.77;5.10;;;20.60;99.90;;;;;;5082501;28;20198;-66
2021/06/10 07:49:53;;;;;;;5.30;4.90;;;20.70;99.90;;;;;;5085294;28;20354;-66
2021/06/10 07:52:21;;;;;;;5.87;5.40;;;20.70;99.90;;;;;;5081206;28;20192;-67
2021/06/10 07:54:49;;;;;;;5.93;5.53;;;20.80;99.90;;;;;;5080950;28;20225;-66
2021/06/10 07:57:17;;;;;;;7.47;5.30;;;20.90;99.90;;;;;;5079771;28;20188;-66
2021/06/10 07:59:47;;;;;;;6.77;6.17;;;20.90;99.90;;;;;;5080221;28;20173;-66
2021/06/10 08:02:35;;;;;;;5.50;5.00;;;21.10;99.90;;;;;;5081771;28;20253;-66
2021/06/10 08:05:03;;;;;;;7.17;5.57;;;21.30;99.90;;;;;;5084411;28;20204;-66
2021/06/10 08:07:31;;;;;;;6.13;5.53;;;21.50;99.90;;;;;;5082752;28;20196;-67
2021/06/10 08:09:59;;;;;;;5.40;5.00;;;21.50;99.90;;;;;;5084622;28;20211;-66
2021/06/10 08:12:27;;;;;;;6.43;5.67;;;21.60;99.90;;;;;;5080888;28;20250;-66
2021/06/10 08:14:59;;;;;;;6.17;5.67;;;21.70;99.90;;;;;;5084502;28;20393;-67
2021/06/10 08:17:27;;;;;;;5.77;5.37;;;21.70;99.90;;;;;;5080760;28;20188;-68
2021/06/10 08:19:55;;;;;;;6.00;5.43;;;21.90;99.90;;;;;;5067265;28;20218;-67
2021/06/10 08:22:23;;;;;;;9.13;5.93;;;22.00;99.90;;;;;;5083764;28;20188;-66
2021/06/10 08:24:50;;;;;;;5.60;5.10;;;22.10;99.90;;;;;;5084376;28;20195;-67
2021/06/10 08:27:18;;;;;;;8.40;5.73;;;22.20;99.90;;;;;;5082895;28;20191;-67
2021/06/10 08:29:46;;;;;;;6.00;5.40;;;22.20;99.90;;;;;;5083837;28;20228;-66
2021/06/10 08:32:16;;;;;;;6.17;5.60;;;22.30;99.90;;;;;;5077431;28;20247;-66
2021/06/10 08:34:44;;;;;;;6.07;5.47;;;22.30;99.90;;;;;;5084436;28;20189;-67
2021/06/10 08:37:12;;;;;;;8.87;6.17;;;22.50;99.90;;;;;;5083648;28;20204;-67
2021/06/10 08:39:40;;;;;;;6.33;5.70;;;22.50;99.90;;;;;;5066379;28;20234;-67
2021/06/10 08:42:08;;;;;;;7.77;5.90;;;22.50;99.90;;;;;;5081985;28;20172;-67
2021/06/10 08:44:36;;;;;;;6.83;5.47;;;22.60;99.90;;;;;;5084980;28;20230;-67
2021/06/10 08:47:07;;;;;;;8.73;5.83;;;22.80;99.90;;;;;;5066077;28;20188;-67
2021/06/10 08:49:37;;;;;;;7.23;6.53;;;22.90;99.90;;;;;;5085361;28;20205;-67
2021/06/10 08:52:07;;;;;;;6.43;5.93;;;22.90;99.90;;;;;;5083704;28;20324;-67
2021/06/10 08:54:34;;;;;;;5.80;5.30;;;23.10;99.90;;;;;;5084243;28;20300;-67
2021/06/10 08:57:03;;;;;;;6.13;5.37;;;23.40;99.90;;;;;;5079339;28;20182;-67
2021/06/10 08:59:31;;;;;;;7.20;6.10;;;23.80;99.90;;;;;;5083737;28;20180;-67
2021/06/10 09:01:59;;;;;;;7.07;6.37;;;23.80;99.90;;;;;;5077837;28;20196;-67
2021/06/10 09:04:27;;;;;;;8.67;6.10;;;24.00;99.90;;;;;;5066387;28;20192;-67
2021/06/10 09:06:56;;;;;;;9.77;6.60;;;24.20;99.90;;;;;;5077862;28;20246;-68
2021/06/10 09:09:33;;;;;;;7.60;6.93;;;24.10;99.90;;;;;;5084322;28;20212;-67
2021/06/10 09:12:05;;;;;;;9.43;7.07;;;24.20;99.90;;;;;;5079197;28;20237;-67
2021/06/10 09:14:52;;;;;;;8.03;7.33;;;24.50;99.90;;;;;;5081093;28;20275;-68
2021/06/10 09:17:30;;;;;;;8.00;7.20;;;24.50;99.90;;;;;;5058366;28;20192;-68
2021/06/10 09:19:59;;;;;;;7.47;6.77;;;24.40;99.90;;;;;;5083642;28;20253;-67
2021/06/10 09:22:42;;;;;;;8.03;7.10;;;24.90;99.90;;;;;;5081825;28;20196;-67
2021/06/10 09:25:15;;;;;;;8.70;7.47;;;25.00;99.90;;;;;;5066032;28;20412;-67
2021/06/10 09:27:53;;;;;;;8.07;6.78;;;24.90;99.90;;;;;;5080973;28;20353;-67
2021/06/10 09:30:30;;;;;;;7.97;7.10;;;25.10;99.90;;;;;;5084141;28;20217;-67
2021/06/10 09:33:00;;;;;;;11.38;7.90;;;25.40;99.90;;;;;;5074812;28;20185;-67
2021/06/10 09:35:30;;;;;;;8.90;7.95;;;25.70;99.90;;;;;;5084340;28;20189;-68
2021/06/10 09:38:05;;;;;;;9.07;8.15;;;25.70;99.90;;;;;;5074597;28;20202;-67
2021/06/10 09:40:34;;;;;;;9.85;8.85;;;25.40;99.90;;;;;;5084382;28;20189;-67
2021/06/10 09:43:03;;;;;;;8.13;7.43;;;25.20;99.90;;;;;;5076138;28;20181;-67
2021/06/10 09:45:33;;;;;;;13.10;8.93;;;25.30;99.90;;;;;;5083679;28;20186;-67
2021/06/10 09:48:04;;;;;;;10.68;7.95;;;25.50;99.90;;;;;;5080020;28;20397;-68
2021/06/10 09:50:37;;;;;;;8.82;7.93;;;25.60;99.90;;;;;;5086093;28;20210;-67
2021/06/10 09:53:10;;;;;;;9.70;8.70;;;25.60;99.90;;;;;;5062663;28;20179;-67
2021/06/10 09:55:46;;;;;;;9.38;7.88;;;25.90;99.90;;;;;;5085527;28;20355;-67
2021/06/10 09:58:38;;;;;;;9.70;7.45;;;26.00;99.90;;;;;;5082992;28;20253;-68
2021/06/10 10:01:10;;;;;;;11.88;9.45;;;26.30;99.90;;;;;;5080957;28;20194;-67
2021/06/10 10:03:43;;;;;;;15.93;10.35;;;26.70;99.90;;;;;;5083625;28;20182;-67
2021/06/10 10:06:19;;;;;;;10.73;9.63;;;26.40;99.90;;;;;;5085049;28;20179;-66
2021/06/10 10:08:52;;;;;;;11.45;10.07;;;26.00;99.90;;;;;;5086923;28;20180;-67
2021/06/10 10:11:22;;;;;;;9.77;8.63;;;25.80;99.90;;;;;;5082708;28;20199;-67
2021/06/10 10:13:51;;;;;;;10.65;9.52;;;25.90;99.90;;;;;;5085450;28;20191;-67
2021/06/10 10:16:24;;;;;;;11.43;8.93;;;26.20;99.90;;;;;;5086382;28;20228;-67
2021/06/10 10:18:53;;;;;;;12.25;9.98;;;26.20;99.90;;;;;;5085166;28;20187;-67
2021/06/10 10:21:26;;;;;;;12.93;10.32;;;26.30;99.90;;;;;;5083370;28;20191;-67
2021/06/10 10:23:59;;;;;;;10.73;9.65;;;26.20;99.90;;;;;;5082089;28;20173;-67
2021/06/10 10:26:28;;;;;;;11.25;8.85;;;26.40;99.90;;;;;;5079328;28;20211;-67
2021/06/10 10:28:57;;;;;;;9.88;8.98;;;26.60;99.90;;;;;;5084767;28;20179;-67
2021/06/10 10:31:27;;;;;;;9.63;8.73;;;27.00;99.90;;;;;;5085713;28;20305;-67
2021/06/10 10:33:56;;;;;;;11.07;9.02;;;27.10;99.90;;;;;;5085260;28;20216;-67
2021/06/10 10:36:26;;;;;;;13.18;10.77;;;27.50;99.90;;;;;;5087466;28;20182;-67
2021/06/10 10:39:01;;;;;;;10.65;9.55;;;27.60;99.90;;;;;;5085883;28;20364;-67
2021/06/10 10:41:30;;;;;;;9.35;7.65;;;27.70;99.90;;;;;;5085128;28;20190;-67
2021/06/10 10:44:09;;;;;;;10.18;8.75;;;27.90;99.90;;;;;;5082597;28;20192;-67
2021/06/10 10:46:37;;;;;;;14.57;9.68;;;28.00;99.90;;;;;;5083710;28;20435;-67
2021/06/10 10:49:21;;;;;;;8.98;8.07;;;27.90;99.90;;;;;;5083046;28;20204;-67
2021/06/10 10:51:49;;;;;;;11.57;10.38;;;28.10;99.90;;;;;;5078562;28;20267;-67
2021/06/10 10:54:32;;;;;;;11.75;9.98;;;28.00;99.90;;;;;;5082263;28;20188;-67
2021/06/10 10:57:01;;;;;;;10.90;9.90;;;27.80;99.90;;;;;;5078515;28;20356;-67
2021/06/10 10:59:39;;;;;;;10.85;9.75;;;27.70;99.90;;;;;;5084725;28;20197;-67
2021/06/10 11:02:10;;;;;;;10.88;9.88;;;27.00;99.90;;;;;;5079327;28;20186;-67
2021/06/10 11:04:55;;;;;;;11.93;9.70;;;27.40;99.90;;;;;;5081625;28;20182;-67
2021/06/10 11:07:52;;;;;;;17.50;10.57;;;28.00;99.90;;;;;;5068169;28;20189;-67
2021/06/10 11:11:01;;;;;;;12.02;9.48;;;27.50;99.90;;;;;;5068504;28;20316;-67
2021/06/10 11:13:31;;;;;;;11.73;10.60;;;26.90;99.90;;;;;;5057543;28;20265;-67
2021/06/10 11:16:04;;;;;;;13.40;10.52;;;27.30;99.90;;;;;;5066109;28;20366;-67
2021/06/10 11:18:52;;;;;;;13.20;9.30;;;27.60;99.90;;;;;;5083424;28;20718;-67
2021/06/10 11:21:52;;;;;;;11.20;9.52;;;27.60;99.90;;;;;;5072938;28;20397;-67
2021/06/10 11:24:24;;;;;;;10.30;9.30;;;26.90;99.90;;;;;;5074618;28;20230;-66
2021/06/10 11:27:04;;;;;;;13.87;10.97;;;26.20;99.90;;;;;;5085630;28;20449;-67
2021/06/10 11:29:32;;;;;;;15.87;11.10;;;26.30;99.90;;;;;;5076229;28;20408;-67
2021/06/10 11:32:19;;;;;;;12.53;10.33;;;26.60;99.90;;;;;;5085447;28;20402;-67
2021/06/10 11:34:52;;;;;;;10.13;9.23;;;26.90;99.90;;;;;;5060292;28;20372;-66
2021/06/10 11:37:22;;;;;;;11.17;9.47;;;26.90;99.90;;;;;;5095324;28;20180;-67
2021/06/10 11:39:51;;;;;;;13.13;10.45;;;27.10;99.90;;;;;;5085703;28;20179;-66
2021/06/10 11:42:23;;;;;;;16.00;10.33;;;27.30;99.90;;;;;;5085001;28;20188;-66
2021/06/10 11:44:53;;;;;;;11.93;10.70;;;27.10;99.90;;;;;;5079018;28;20192;-66
2021/06/10 11:47:26;;;;;;;11.80;10.20;;;26.80;99.90;;;;;;5084829;28;20369;-66
2021/06/10 11:49:55;;;;;;;10.70;9.60;;;26.70;99.90;;;;;;5081519;28;20311;-66
2021/06/10 11:52:23;;;;;;;11.10;8.97;;;26.90;99.90;;;;;;5084200;28;20200;-66
2021/06/10 11:55:05;;;;;;;8.70;7.90;;;27.10;99.90;;;;;;5082996;28;20227;-66
2021/06/10 11:57:35;;;;;;;9.60;8.60;;;27.40;99.90;;;;;;5083876;28;20183;-65
2021/06/10 12:00:07;;;;;;;11.03;8.93;;;27.50;99.90;;;;;;5084538;28;20253;-65
2021/06/10 12:02:35;;;;;;;8.40;7.53;;;27.50;99.90;;;;;;5085739;28;20196;-66
2021/06/10 12:05:12;;;;;;;9.63;7.03;;;27.50;99.90;;;;;;5083078;28;20290;-66
2021/06/10 12:07:40;;;;;;;10.37;6.70;;;27.40;99.90;;;;;;5084783;28;20187;-67
2021/06/10 12:10:16;;;;;;;8.80;7.10;;;27.30;99.90;;;;;;5081141;28;20215;-65
2021/06/10 12:12:47;;;;;;;13.13;8.33;;;27.40;99.90;;;;;;5079486;28;20225;-73
2021/06/10 12:15:30;;;;;;;11.13;9.13;;;27.50;99.90;;;;;;5064251;28;20192;-68
2021/06/10 12:18:01;;;;;;;10.87;8.83;;;27.10;99.90;;;;;;5079529;28;20207;-67
2021/06/10 12:20:50;;;;;;;9.33;8.37;;;26.80;99.90;;;;;;5076217;28;20188;-68
2021/06/10 12:23:22;;;;;;;13.23;8.30;;;26.50;99.90;;;;;;5064759;28;20245;-67
2021/06/10 12:25:51;;;;;;;10.53;9.37;;;26.40;99.90;;;;;;5080005;28;20267;-68
2021/06/10 12:28:36;;;;;;;8.50;7.70;;;26.40;99.90;;;;;;5072641;28;20207;-68
2021/06/10 12:31:11;;;;;;;12.70;8.50;;;26.30;99.90;;;;;;5073690;28;20223;-68
2021/06/10 12:33:41;;;;;;;9.50;8.60;;;26.30;99.90;;;;;;5083416;28;20192;-68
2021/06/10 12:36:19;;;;;;;10.57;9.30;;;26.20;99.90;;;;;;5086888;28;20180;-68
2021/06/10 12:38:54;;;;;;;9.20;8.23;;;26.20;99.90;;;;;;5080918;28;20280;-67
2021/06/10 12:41:26;;;;;;;9.73;8.83;;;26.10;99.90;;;;;;5086237;28;20695;-68
2021/06/10 12:44:07;;;;;;;9.23;8.10;;;26.30;99.90;;;;;;5080712;28;20185;-68
2021/06/10 12:46:49;;;;;;;10.73;8.60;;;26.40;99.90;;;;;;5080152;28;20279;-67
2021/06/10 12:49:19;;;;;;;10.57;9.07;;;26.40;99.90;;;;;;5077827;28;20211;-65
2021/06/10 12:51:48;;;;;;;12.73;8.83;;;26.50;99.90;;;;;;5082891;28;20216;-68
2021/06/10 12:54:16;;;;;;;11.20;9.53;;;26.60;99.90;;;;;;5083148;28;20199;-67
2021/06/10 12:56:53;;;;;;;12.90;8.57;;;26.70;99.90;;;;;;5082470;28;20254;-64